sensor_id;sensor_type;location;lat;lon;timestamp;P1;durP1;ratioP1;P2;durP2;ratioP2
10511;SDS011;5304;48.604;2.096;2023-03-07T00:01:38;14.00;;;7.20;;
10511;SDS011;5304;48.604;2.096;2023-03-07T00:04:22;14.93;;;7.70;;
10511;SDS011;5304;48.604;2.096;2023-03-07T00:07:06;13.13;;;6.83;;
10511;SDS011;5304;48.604;2.096;2023-03-07T00:09:51;10.93;;;6.80;;
10511;SDS011;5304;48.604;2.096;2023-03-07T00:12:36;16.17;;;7.33;;
10511;SDS011;5304;48.604;2.096;2023-03-07T00:15:20;12.73;;;6.87;;
10511;SDS011;5304;48.604;2.096;2023-03-07T00:18:05;15.83;;;7.50;;
10511;SDS011;5304;48.604;2.096;2023-03-07T00:20:59;16.70;;;7.87;;
10511;SDS011;5304;48.604;2.096;2023-03-07T00:23:50;14.20;;;7.10;;
10511;SDS011;5304;48.604;2.096;2023-03-07T00:26:35;14.40;;;7.87;;
10511;SDS011;5304;48.604;2.096;2023-03-07T00:29:22;12.77;;;7.43;;
10511;SDS011;5304;48.604;2.096;2023-03-07T00:32:06;10.80;;;7.10;;
10511;SDS011;5304;48.604;2.096;2023-03-07T00:34:51;11.57;;;7.10;;
10511;SDS011;5304;48.604;2.096;2023-03-07T00:37:36;12.87;;;7.57;;
10511;SDS011;5304;48.604;2.096;2023-03-07T00:40:21;11.73;;;7.00;;
10511;SDS011;5304;48.604;2.096;2023-03-07T00:43:05;13.03;;;7.60;;
10511;SDS011;5304;48.604;2.096;2023-03-07T00:45:50;10.47;;;6.87;;
10511;SDS011;5304;48.604;2.096;2023-03-07T00:48:36;13.33;;;7.87;;
10511;SDS011;5304;48.604;2.096;2023-03-07T00:51:22;12.87;;;7.20;;
10511;SDS011;5304;48.604;2.096;2023-03-07T00:54:06;9.47;;;6.73;;
10511;SDS011;5304;48.604;2.096;2023-03-07T00:56:51;13.27;;;7.63;;
10511;SDS011;5304;48.604;2.096;2023-03-07T00:59:36;13.43;;;6.97;;
10511;SDS011;5304;48.604;2.096;2023-03-07T01:02:20;14.10;;;8.00;;
10511;SDS011;5304;48.604;2.096;2023-03-07T01:05:05;14.10;;;8.00;;
10511;SDS011;5304;48.604;2.096;2023-03-07T01:07:49;11.27;;;6.83;;
10511;SDS011;5304;48.604;2.096;2023-03-07T01:10:34;12.93;;;7.00;;
10511;SDS011;5304;48.604;2.096;2023-03-07T01:13:18;13.13;;;6.73;;
10511;SDS011;5304;48.604;2.096;2023-03-07T01:16:06;11.73;;;6.83;;
10511;SDS011;5304;48.604;2.096;2023-03-07T01:19:02;13.73;;;7.23;;
10511;SDS011;5304;48.604;2.096;2023-03-07T01:21:49;10.07;;;6.93;;
10511;SDS011;5304;48.604;2.096;2023-03-07T01:24:33;12.67;;;6.23;;
10511;SDS011;5304;48.604;2.096;2023-03-07T01:27:17;16.20;;;7.03;;
10511;SDS011;5304;48.604;2.096;2023-03-07T01:30:02;10.47;;;6.47;;
10511;SDS011;5304;48.604;2.096;2023-03-07T01:32:47;11.60;;;6.57;;
10511;SDS011;5304;48.604;2.096;2023-03-07T01:35:38;12.37;;;6.70;;
10511;SDS011;5304;48.604;2.096;2023-03-07T01:38:23;10.83;;;6.20;;
10511;SDS011;5304;48.604;2.096;2023-03-07T01:41:08;16.57;;;6.93;;
10511;SDS011;5304;48.604;2.096;2023-03-07T01:43:52;11.27;;;6.43;;
10511;SDS011;5304;48.604;2.096;2023-03-07T01:46:55;15.67;;;6.60;;
10511;SDS011;5304;48.604;2.096;2023-03-07T01:49:41;10.10;;;6.37;;
10511;SDS011;5304;48.604;2.096;2023-03-07T01:52:31;12.63;;;7.27;;
10511;SDS011;5304;48.604;2.096;2023-03-07T01:55:20;12.83;;;6.97;;
10511;SDS011;5304;48.604;2.096;2023-03-07T01:58:09;15.27;;;6.60;;
10511;SDS011;5304;48.604;2.096;2023-03-07T02:00:55;12.93;;;6.80;;
10511;SDS011;5304;48.604;2.096;2023-03-07T02:03:43;11.03;;;6.00;;
10511;SDS011;5304;48.604;2.096;2023-03-07T02:06:34;13.53;;;6.50;;
10511;SDS011;5304;48.604;2.096;2023-03-07T02:09:20;14.10;;;7.47;;
10511;SDS011;5304;48.604;2.096;2023-03-07T02:12:06;19.27;;;6.80;;
10511;SDS011;5304;48.604;2.096;2023-03-07T02:14:51;10.20;;;6.30;;
10511;SDS011;5304;48.604;2.096;2023-03-07T02:17:36;13.47;;;6.90;;
10511;SDS011;5304;48.604;2.096;2023-03-07T02:29:14;11.80;;;6.70;;
10511;SDS011;5304;48.604;2.096;2023-03-07T02:31:59;14.47;;;7.07;;
10511;SDS011;5304;48.604;2.096;2023-03-07T02:34:44;13.27;;;6.73;;
10511;SDS011;5304;48.604;2.096;2023-03-07T02:37:32;13.33;;;7.77;;
10511;SDS011;5304;48.604;2.096;2023-03-07T02:40:20;13.80;;;7.37;;
10511;SDS011;5304;48.604;2.096;2023-03-07T02:43:07;14.13;;;7.13;;
10511;SDS011;5304;48.604;2.096;2023-03-07T02:45:52;12.37;;;6.97;;
10511;SDS011;5304;48.604;2.096;2023-03-07T02:48:37;11.73;;;7.30;;
10511;SDS011;5304;48.604;2.096;2023-03-07T02:51:22;13.23;;;7.07;;
10511;SDS011;5304;48.604;2.096;2023-03-07T02:54:06;15.20;;;7.40;;
10511;SDS011;5304;48.604;2.096;2023-03-07T02:56:51;12.77;;;7.30;;
10511;SDS011;5304;48.604;2.096;2023-03-07T02:59:36;14.43;;;7.13;;
10511;SDS011;5304;48.604;2.096;2023-03-07T03:02:21;13.17;;;7.40;;
10511;SDS011;5304;48.604;2.096;2023-03-07T03:05:05;14.17;;;6.93;;
10511;SDS011;5304;48.604;2.096;2023-03-07T03:07:50;12.27;;;6.87;;
10511;SDS011;5304;48.604;2.096;2023-03-07T03:10:35;13.73;;;7.33;;
10511;SDS011;5304;48.604;2.096;2023-03-07T03:13:19;13.73;;;7.67;;
10511;SDS011;5304;48.604;2.096;2023-03-07T03:16:04;12.73;;;7.00;;
10511;SDS011;5304;48.604;2.096;2023-03-07T03:18:49;12.87;;;6.67;;
10511;SDS011;5304;48.604;2.096;2023-03-07T03:21:35;13.63;;;7.47;;
10511;SDS011;5304;48.604;2.096;2023-03-07T03:24:19;10.63;;;6.53;;
10511;SDS011;5304;48.604;2.096;2023-03-07T03:27:03;10.20;;;6.40;;
10511;SDS011;5304;48.604;2.096;2023-03-07T03:29:47;14.20;;;7.30;;
10511;SDS011;5304;48.604;2.096;2023-03-07T03:32:32;14.47;;;7.40;;
10511;SDS011;5304;48.604;2.096;2023-03-07T03:35:17;12.23;;;7.07;;
10511;SDS011;5304;48.604;2.096;2023-03-07T03:38:01;14.93;;;7.70;;
10511;SDS011;5304;48.604;2.096;2023-03-07T03:40:45;14.17;;;7.60;;
10511;SDS011;5304;48.604;2.096;2023-03-07T03:43:30;12.60;;;7.70;;
10511;SDS011;5304;48.604;2.096;2023-03-07T03:46:14;14.43;;;7.73;;
10511;SDS011;5304;48.604;2.096;2023-03-07T03:49:00;16.50;;;7.90;;
10511;SDS011;5304;48.604;2.096;2023-03-07T03:51:44;15.17;;;7.30;;
10511;SDS011;5304;48.604;2.096;2023-03-07T03:54:29;13.50;;;7.10;;
10511;SDS011;5304;48.604;2.096;2023-03-07T03:57:13;12.70;;;7.27;;
10511;SDS011;5304;48.604;2.096;2023-03-07T04:00:03;13.97;;;7.33;;
10511;SDS011;5304;48.604;2.096;2023-03-07T04:02:48;12.77;;;6.87;;
10511;SDS011;5304;48.604;2.096;2023-03-07T04:05:32;12.03;;;7.07;;
10511;SDS011;5304;48.604;2.096;2023-03-07T04:08:17;12.80;;;6.93;;
10511;SDS011;5304;48.604;2.096;2023-03-07T04:11:02;12.27;;;6.90;;
10511;SDS011;5304;48.604;2.096;2023-03-07T04:13:47;15.67;;;6.80;;
10511;SDS011;5304;48.604;2.096;2023-03-07T04:16:32;11.10;;;6.73;;
10511;SDS011;5304;48.604;2.096;2023-03-07T04:19:16;12.73;;;7.47;;
10511;SDS011;5304;48.604;2.096;2023-03-07T04:22:00;10.87;;;6.50;;
10511;SDS011;5304;48.604;2.096;2023-03-07T04:24:45;13.87;;;7.80;;
10511;SDS011;5304;48.604;2.096;2023-03-07T04:27:29;13.80;;;7.47;;
10511;SDS011;5304;48.604;2.096;2023-03-07T04:30:16;10.70;;;6.30;;
10511;SDS011;5304;48.604;2.096;2023-03-07T04:33:00;12.90;;;7.53;;
10511;SDS011;5304;48.604;2.096;2023-03-07T04:35:45;15.20;;;8.10;;
10511;SDS011;5304;48.604;2.096;2023-03-07T04:38:29;12.30;;;6.67;;
10511;SDS011;5304;48.604;2.096;2023-03-07T04:41:18;16.03;;;7.77;;
10511;SDS011;5304;48.604;2.096;2023-03-07T04:44:04;12.83;;;6.90;;
10511;SDS011;5304;48.604;2.096;2023-03-07T04:46:48;14.00;;;7.23;;
10511;SDS011;5304;48.604;2.096;2023-03-07T04:49:33;12.93;;;6.63;;
10511;SDS011;5304;48.604;2.096;2023-03-07T04:52:17;15.00;;;6.80;;
10511;SDS011;5304;48.604;2.096;2023-03-07T04:55:03;12.63;;;7.00;;
10511;SDS011;5304;48.604;2.096;2023-03-07T04:57:48;12.60;;;7.07;;
10511;SDS011;5304;48.604;2.096;2023-03-07T05:00:34;12.53;;;7.27;;
10511;SDS011;5304;48.604;2.096;2023-03-07T05:03:19;13.00;;;6.87;;
10511;SDS011;5304;48.604;2.096;2023-03-07T05:06:05;12.20;;;6.47;;
10511;SDS011;5304;48.604;2.096;2023-03-07T05:08:51;10.53;;;6.00;;
10511;SDS011;5304;48.604;2.096;2023-03-07T05:11:36;12.60;;;6.50;;
10511;SDS011;5304;48.604;2.096;2023-03-07T05:14:20;10.53;;;6.13;;
10511;SDS011;5304;48.604;2.096;2023-03-07T05:17:05;15.33;;;6.93;;
10511;SDS011;5304;48.604;2.096;2023-03-07T05:19:49;13.40;;;6.90;;
10511;SDS011;5304;48.604;2.096;2023-03-07T05:22:33;12.97;;;6.93;;
10511;SDS011;5304;48.604;2.096;2023-03-07T05:25:18;12.00;;;6.97;;
10511;SDS011;5304;48.604;2.096;2023-03-07T05:28:02;16.10;;;6.57;;
10511;SDS011;5304;48.604;2.096;2023-03-07T05:30:46;10.23;;;5.97;;
10511;SDS011;5304;48.604;2.096;2023-03-07T05:33:32;11.27;;;6.83;;
10511;SDS011;5304;48.604;2.096;2023-03-07T05:36:16;11.50;;;6.23;;
10511;SDS011;5304;48.604;2.096;2023-03-07T05:39:00;12.10;;;6.50;;
10511;SDS011;5304;48.604;2.096;2023-03-07T05:41:46;11.77;;;6.60;;
10511;SDS011;5304;48.604;2.096;2023-03-07T05:44:30;13.37;;;6.53;;
10511;SDS011;5304;48.604;2.096;2023-03-07T05:47:16;12.77;;;6.47;;
10511;SDS011;5304;48.604;2.096;2023-03-07T05:50:00;18.17;;;7.67;;
10511;SDS011;5304;48.604;2.096;2023-03-07T05:52:45;10.67;;;6.40;;
10511;SDS011;5304;48.604;2.096;2023-03-07T05:55:29;11.70;;;6.47;;
10511;SDS011;5304;48.604;2.096;2023-03-07T05:58:14;16.60;;;7.40;;
10511;SDS011;5304;48.604;2.096;2023-03-07T06:01:00;12.23;;;6.13;;
10511;SDS011;5304;48.604;2.096;2023-03-07T06:03:46;13.40;;;6.90;;
10511;SDS011;5304;48.604;2.096;2023-03-07T06:06:31;10.47;;;6.07;;
10511;SDS011;5304;48.604;2.096;2023-03-07T06:09:15;11.20;;;6.37;;
10511;SDS011;5304;48.604;2.096;2023-03-07T06:11:59;10.23;;;6.13;;
10511;SDS011;5304;48.604;2.096;2023-03-07T06:14:44;12.83;;;7.10;;
10511;SDS011;5304;48.604;2.096;2023-03-07T06:17:28;12.97;;;6.30;;
10511;SDS011;5304;48.604;2.096;2023-03-07T06:20:13;10.47;;;6.40;;
10511;SDS011;5304;48.604;2.096;2023-03-07T06:22:59;11.47;;;6.47;;
10511;SDS011;5304;48.604;2.096;2023-03-07T06:25:43;12.30;;;6.80;;
10511;SDS011;5304;48.604;2.096;2023-03-07T06:28:28;11.30;;;6.87;;
10511;SDS011;5304;48.604;2.096;2023-03-07T06:31:14;12.70;;;6.77;;
10511;SDS011;5304;48.604;2.096;2023-03-07T06:34:00;12.73;;;7.03;;
10511;SDS011;5304;48.604;2.096;2023-03-07T06:36:45;12.97;;;7.00;;
10511;SDS011;5304;48.604;2.096;2023-03-07T06:39:31;11.03;;;6.33;;
10511;SDS011;5304;48.604;2.096;2023-03-07T06:42:16;12.30;;;6.67;;
10511;SDS011;5304;48.604;2.096;2023-03-07T06:45:00;13.43;;;7.37;;
10511;SDS011;5304;48.604;2.096;2023-03-07T06:47:44;13.20;;;7.33;;
10511;SDS011;5304;48.604;2.096;2023-03-07T06:50:29;11.60;;;7.17;;
10511;SDS011;5304;48.604;2.096;2023-03-07T06:53:13;11.80;;;7.50;;
10511;SDS011;5304;48.604;2.096;2023-03-07T06:55:58;11.27;;;6.93;;
10511;SDS011;5304;48.604;2.096;2023-03-07T06:58:42;16.07;;;7.23;;
10511;SDS011;5304;48.604;2.096;2023-03-07T07:01:27;17.87;;;8.57;;
10511;SDS011;5304;48.604;2.096;2023-03-07T07:04:11;12.77;;;7.67;;
10511;SDS011;5304;48.604;2.096;2023-03-07T07:06:55;14.37;;;7.87;;
10511;SDS011;5304;48.604;2.096;2023-03-07T07:09:40;12.33;;;7.53;;
10511;SDS011;5304;48.604;2.096;2023-03-07T07:12:24;15.85;;;9.05;;
10511;SDS011;5304;48.604;2.096;2023-03-07T07:15:09;15.33;;;7.83;;
10511;SDS011;5304;48.604;2.096;2023-03-07T07:17:54;15.77;;;8.23;;
10511;SDS011;5304;48.604;2.096;2023-03-07T07:20:38;16.70;;;7.57;;
10511;SDS011;5304;48.604;2.096;2023-03-07T07:23:22;15.37;;;8.37;;
10511;SDS011;5304;48.604;2.096;2023-03-07T07:26:09;16.27;;;7.90;;
10511;SDS011;5304;48.604;2.096;2023-03-07T07:28:53;14.07;;;7.87;;
10511;SDS011;5304;48.604;2.096;2023-03-07T07:31:37;19.07;;;9.80;;
10511;SDS011;5304;48.604;2.096;2023-03-07T07:34:22;16.63;;;8.50;;
10511;SDS011;5304;48.604;2.096;2023-03-07T07:37:06;15.43;;;9.07;;
10511;SDS011;5304;48.604;2.096;2023-03-07T07:39:51;15.63;;;8.27;;
10511;SDS011;5304;48.604;2.096;2023-03-07T07:42:35;14.50;;;7.73;;
10511;SDS011;5304;48.604;2.096;2023-03-07T07:45:20;16.47;;;7.73;;
10511;SDS011;5304;48.604;2.096;2023-03-07T07:48:05;14.17;;;7.70;;
10511;SDS011;5304;48.604;2.096;2023-03-07T07:50:49;13.40;;;7.27;;
10511;SDS011;5304;48.604;2.096;2023-03-07T07:53:35;15.33;;;8.10;;
10511;SDS011;5304;48.604;2.096;2023-03-07T07:56:19;14.40;;;8.10;;
10511;SDS011;5304;48.604;2.096;2023-03-07T07:59:03;13.37;;;8.03;;
10511;SDS011;5304;48.604;2.096;2023-03-07T08:01:48;14.77;;;7.77;;
10511;SDS011;5304;48.604;2.096;2023-03-07T08:04:33;13.67;;;8.20;;
10511;SDS011;5304;48.604;2.096;2023-03-07T08:07:18;15.13;;;8.13;;
10511;SDS011;5304;48.604;2.096;2023-03-07T08:10:02;18.60;;;7.53;;
10511;SDS011;5304;48.604;2.096;2023-03-07T08:12:48;15.77;;;7.57;;
10511;SDS011;5304;48.604;2.096;2023-03-07T08:15:36;14.87;;;8.70;;
10511;SDS011;5304;48.604;2.096;2023-03-07T08:18:20;15.07;;;8.63;;
10511;SDS011;5304;48.604;2.096;2023-03-07T08:21:06;15.00;;;8.40;;
10511;SDS011;5304;48.604;2.096;2023-03-07T08:23:52;16.10;;;8.33;;
10511;SDS011;5304;48.604;2.096;2023-03-07T08:26:37;15.27;;;7.97;;
10511;SDS011;5304;48.604;2.096;2023-03-07T08:29:21;14.63;;;8.37;;
10511;SDS011;5304;48.604;2.096;2023-03-07T08:32:06;15.73;;;7.93;;
10511;SDS011;5304;48.604;2.096;2023-03-07T08:34:51;13.77;;;8.07;;
10511;SDS011;5304;48.604;2.096;2023-03-07T08:37:35;14.33;;;8.40;;
10511;SDS011;5304;48.604;2.096;2023-03-07T08:40:19;15.10;;;8.40;;
10511;SDS011;5304;48.604;2.096;2023-03-07T08:43:04;14.53;;;8.30;;
10511;SDS011;5304;48.604;2.096;2023-03-07T08:45:49;15.23;;;8.10;;
10511;SDS011;5304;48.604;2.096;2023-03-07T08:48:35;13.20;;;7.93;;
10511;SDS011;5304;48.604;2.096;2023-03-07T08:51:19;21.17;;;8.67;;
10511;SDS011;5304;48.604;2.096;2023-03-07T08:54:04;13.60;;;8.17;;
10511;SDS011;5304;48.604;2.096;2023-03-07T08:56:48;14.83;;;7.30;;
10511;SDS011;5304;48.604;2.096;2023-03-07T08:59:33;17.43;;;8.10;;
10511;SDS011;5304;48.604;2.096;2023-03-07T09:02:17;14.43;;;7.10;;
10511;SDS011;5304;48.604;2.096;2023-03-07T09:05:02;15.33;;;7.60;;
10511;SDS011;5304;48.604;2.096;2023-03-07T09:07:47;12.40;;;7.40;;
10511;SDS011;5304;48.604;2.096;2023-03-07T09:10:32;15.03;;;7.87;;
10511;SDS011;5304;48.604;2.096;2023-03-07T09:13:16;12.57;;;7.17;;
10511;SDS011;5304;48.604;2.096;2023-03-07T09:16:04;13.47;;;6.90;;
10511;SDS011;5304;48.604;2.096;2023-03-07T09:18:49;12.80;;;6.83;;
10511;SDS011;5304;48.604;2.096;2023-03-07T09:21:36;11.47;;;6.63;;
10511;SDS011;5304;48.604;2.096;2023-03-07T09:24:21;13.33;;;7.37;;
10511;SDS011;5304;48.604;2.096;2023-03-07T09:27:05;13.97;;;7.33;;
10511;SDS011;5304;48.604;2.096;2023-03-07T09:29:49;12.60;;;7.13;;
10511;SDS011;5304;48.604;2.096;2023-03-07T09:32:34;12.97;;;6.67;;
10511;SDS011;5304;48.604;2.096;2023-03-07T09:35:18;13.10;;;6.70;;
10511;SDS011;5304;48.604;2.096;2023-03-07T09:38:03;16.30;;;6.87;;
10511;SDS011;5304;48.604;2.096;2023-03-07T09:40:48;12.43;;;6.63;;
10511;SDS011;5304;48.604;2.096;2023-03-07T09:43:41;10.03;;;6.70;;
10511;SDS011;5304;48.604;2.096;2023-03-07T09:49:47;10.57;;;5.73;;
10511;SDS011;5304;48.604;2.096;2023-03-07T09:52:33;12.07;;;6.20;;
10511;SDS011;5304;48.604;2.096;2023-03-07T09:55:23;11.87;;;6.80;;
10511;SDS011;5304;48.604;2.096;2023-03-07T09:58:13;12.57;;;6.37;;
10511;SDS011;5304;48.604;2.096;2023-03-07T10:01:01;10.37;;;6.03;;
10511;SDS011;5304;48.604;2.096;2023-03-07T10:04:00;11.40;;;6.27;;
10511;SDS011;5304;48.604;2.096;2023-03-07T10:06:50;9.90;;;6.03;;
10511;SDS011;5304;48.604;2.096;2023-03-07T10:09:38;10.20;;;5.20;;
10511;SDS011;5304;48.604;2.096;2023-03-07T10:28:19;9.50;;;5.10;;
10511;SDS011;5304;48.604;2.096;2023-03-07T10:33:58;7.37;;;4.47;;
10511;SDS011;5304;48.604;2.096;2023-03-07T10:36:45;8.93;;;5.00;;
10511;SDS011;5304;48.604;2.096;2023-03-07T10:39:51;9.30;;;5.27;;
10511;SDS011;5304;48.604;2.096;2023-03-07T10:42:37;11.27;;;6.27;;
10511;SDS011;5304;48.604;2.096;2023-03-07T10:45:23;8.67;;;5.33;;
10511;SDS011;5304;48.604;2.096;2023-03-07T10:48:14;10.23;;;5.77;;
10511;SDS011;5304;48.604;2.096;2023-03-07T10:54:14;8.27;;;4.90;;
10511;SDS011;5304;48.604;2.096;2023-03-07T10:59:52;13.00;;;6.57;;
10511;SDS011;5304;48.604;2.096;2023-03-07T11:02:38;9.37;;;5.07;;
10511;SDS011;5304;48.604;2.096;2023-03-07T11:05:30;8.80;;;5.50;;
10511;SDS011;5304;48.604;2.096;2023-03-07T11:08:34;8.40;;;5.47;;
10511;SDS011;5304;48.604;2.096;2023-03-07T11:11:22;8.70;;;5.37;;
10511;SDS011;5304;48.604;2.096;2023-03-07T11:14:14;8.63;;;5.40;;
10511;SDS011;5304;48.604;2.096;2023-03-07T11:17:00;10.33;;;6.07;;
10511;SDS011;5304;48.604;2.096;2023-03-07T11:19:45;10.13;;;6.27;;
10511;SDS011;5304;48.604;2.096;2023-03-07T11:22:31;9.57;;;5.13;;
10511;SDS011;5304;48.604;2.096;2023-03-07T11:25:22;10.37;;;6.03;;
10511;SDS011;5304;48.604;2.096;2023-03-07T11:28:23;7.10;;;4.77;;
10511;SDS011;5304;48.604;2.096;2023-03-07T11:31:27;7.33;;;5.37;;
10511;SDS011;5304;48.604;2.096;2023-03-07T11:40:27;9.20;;;5.50;;
10511;SDS011;5304;48.604;2.096;2023-03-07T11:46:14;12.10;;;6.50;;
10511;SDS011;5304;48.604;2.096;2023-03-07T11:49:12;9.50;;;6.10;;
10511;SDS011;5304;48.604;2.096;2023-03-07T11:52:25;10.23;;;6.27;;
10511;SDS011;5304;48.604;2.096;2023-03-07T12:19:48;11.33;;;6.73;;
10511;SDS011;5304;48.604;2.096;2023-03-07T12:23:04;10.80;;;6.50;;
10511;SDS011;5304;48.604;2.096;2023-03-07T12:26:03;9.97;;;5.83;;
10511;SDS011;5304;48.604;2.096;2023-03-07T12:32:02;9.77;;;5.37;;
10511;SDS011;5304;48.604;2.096;2023-03-07T12:40:58;7.40;;;5.10;;
10511;SDS011;5304;48.604;2.096;2023-03-07T12:44:28;7.40;;;4.50;;
10511;SDS011;5304;48.604;2.096;2023-03-07T12:50:53;8.13;;;5.00;;
10511;SDS011;5304;48.604;2.096;2023-03-07T12:53:53;7.00;;;5.00;;
10511;SDS011;5304;48.604;2.096;2023-03-07T12:56:51;6.83;;;4.73;;
10511;SDS011;5304;48.604;2.096;2023-03-07T12:59:52;6.93;;;4.90;;
10511;SDS011;5304;48.604;2.096;2023-03-07T13:02:42;8.17;;;5.33;;
10511;SDS011;5304;48.604;2.096;2023-03-07T13:05:34;9.67;;;4.97;;
10511;SDS011;5304;48.604;2.096;2023-03-07T13:08:21;6.87;;;5.17;;
10511;SDS011;5304;48.604;2.096;2023-03-07T13:11:15;8.20;;;5.07;;
10511;SDS011;5304;48.604;2.096;2023-03-07T13:14:08;6.50;;;4.70;;
10511;SDS011;5304;48.604;2.096;2023-03-07T13:23:20;22.73;;;5.93;;
10511;SDS011;5304;48.604;2.096;2023-03-07T13:26:08;6.57;;;4.43;;
10511;SDS011;5304;48.604;2.096;2023-03-07T13:28:53;10.70;;;5.47;;
10511;SDS011;5304;48.604;2.096;2023-03-07T13:31:40;9.90;;;5.10;;
10511;SDS011;5304;48.604;2.096;2023-03-07T13:34:41;8.90;;;5.70;;
10511;SDS011;5304;48.604;2.096;2023-03-07T13:43:31;7.87;;;5.17;;
10511;SDS011;5304;48.604;2.096;2023-03-07T13:49:07;8.47;;;5.10;;
10511;SDS011;5304;48.604;2.096;2023-03-07T13:55:00;8.00;;;4.80;;
10511;SDS011;5304;48.604;2.096;2023-03-07T13:57:47;7.53;;;4.97;;
10511;SDS011;5304;48.604;2.096;2023-03-07T14:00:33;7.13;;;4.80;;
10511;SDS011;5304;48.604;2.096;2023-03-07T14:03:27;8.23;;;5.50;;
10511;SDS011;5304;48.604;2.096;2023-03-07T14:06:27;7.97;;;5.60;;
10511;SDS011;5304;48.604;2.096;2023-03-07T14:09:42;8.70;;;4.67;;
10511;SDS011;5304;48.604;2.096;2023-03-07T14:27:13;8.93;;;4.77;;
10511;SDS011;5304;48.604;2.096;2023-03-07T14:29:59;7.07;;;4.70;;
10511;SDS011;5304;48.604;2.096;2023-03-07T14:32:44;5.87;;;4.50;;
10511;SDS011;5304;48.604;2.096;2023-03-07T14:35:34;7.40;;;5.43;;
10511;SDS011;5304;48.604;2.096;2023-03-07T14:38:19;6.50;;;5.10;;
10511;SDS011;5304;48.604;2.096;2023-03-07T14:48:21;7.17;;;4.13;;
10511;SDS011;5304;48.604;2.096;2023-03-07T14:50:42;7.57;;;4.27;;
10511;SDS011;5304;48.604;2.096;2023-03-07T14:53:27;7.17;;;3.97;;
10511;SDS011;5304;48.604;2.096;2023-03-07T14:56:17;5.57;;;3.20;;
10511;SDS011;5304;48.604;2.096;2023-03-07T14:59:06;5.87;;;4.63;;
10511;SDS011;5304;48.604;2.096;2023-03-07T15:01:54;4.70;;;3.63;;
10511;SDS011;5304;48.604;2.096;2023-03-07T15:04:41;4.97;;;3.80;;
10511;SDS011;5304;48.604;2.096;2023-03-07T15:07:25;4.87;;;3.37;;
10511;SDS011;5304;48.604;2.096;2023-03-07T15:10:12;5.67;;;3.37;;
10511;SDS011;5304;48.604;2.096;2023-03-07T15:12:58;6.83;;;3.33;;
10511;SDS011;5304;48.604;2.096;2023-03-07T15:15:44;5.97;;;3.43;;
10511;SDS011;5304;48.604;2.096;2023-03-07T15:18:41;5.77;;;4.07;;
10511;SDS011;5304;48.604;2.096;2023-03-07T15:21:34;6.27;;;3.57;;
10511;SDS011;5304;48.604;2.096;2023-03-07T15:24:36;6.10;;;3.20;;
10511;SDS011;5304;48.604;2.096;2023-03-07T15:27:26;6.70;;;4.17;;
10511;SDS011;5304;48.604;2.096;2023-03-07T15:30:24;5.80;;;4.13;;
10511;SDS011;5304;48.604;2.096;2023-03-07T15:39:12;5.27;;;3.70;;
10511;SDS011;5304;48.604;2.096;2023-03-07T15:42:18;8.90;;;3.93;;
10511;SDS011;5304;48.604;2.096;2023-03-07T15:45:22;6.27;;;3.63;;
10511;SDS011;5304;48.604;2.096;2023-03-07T15:51:19;5.33;;;3.33;;
10511;SDS011;5304;48.604;2.096;2023-03-07T15:54:17;5.33;;;3.93;;
10511;SDS011;5304;48.604;2.096;2023-03-07T15:57:12;6.83;;;4.27;;
10511;SDS011;5304;48.604;2.096;2023-03-07T16:00:03;5.47;;;4.17;;
10511;SDS011;5304;48.604;2.096;2023-03-07T16:02:49;5.47;;;3.80;;
10511;SDS011;5304;48.604;2.096;2023-03-07T16:05:35;6.07;;;3.60;;
10511;SDS011;5304;48.604;2.096;2023-03-07T16:08:20;5.50;;;3.60;;
10511;SDS011;5304;48.604;2.096;2023-03-07T16:11:05;4.07;;;3.60;;
10511;SDS011;5304;48.604;2.096;2023-03-07T16:13:50;5.67;;;3.70;;
10511;SDS011;5304;48.604;2.096;2023-03-07T16:16:35;5.83;;;3.87;;
10511;SDS011;5304;48.604;2.096;2023-03-07T16:19:19;8.47;;;3.43;;
10511;SDS011;5304;48.604;2.096;2023-03-07T16:22:04;5.40;;;3.10;;
10511;SDS011;5304;48.604;2.096;2023-03-07T16:24:56;6.73;;;3.90;;
10511;SDS011;5304;48.604;2.096;2023-03-07T16:27:43;5.17;;;3.93;;
10511;SDS011;5304;48.604;2.096;2023-03-07T16:30:30;4.83;;;3.80;;
10511;SDS011;5304;48.604;2.096;2023-03-07T16:33:15;6.80;;;3.87;;
10511;SDS011;5304;48.604;2.096;2023-03-07T16:36:00;6.57;;;3.83;;
10511;SDS011;5304;48.604;2.096;2023-03-07T16:38:45;7.07;;;4.50;;
10511;SDS011;5304;48.604;2.096;2023-03-07T16:41:30;6.93;;;3.90;;
10511;SDS011;5304;48.604;2.096;2023-03-07T16:44:18;7.27;;;4.23;;
10511;SDS011;5304;48.604;2.096;2023-03-07T16:47:11;10.47;;;4.47;;
10511;SDS011;5304;48.604;2.096;2023-03-07T16:49:59;7.17;;;4.10;;
10511;SDS011;5304;48.604;2.096;2023-03-07T16:52:44;9.20;;;4.67;;
10511;SDS011;5304;48.604;2.096;2023-03-07T16:55:28;7.70;;;4.50;;
10511;SDS011;5304;48.604;2.096;2023-03-07T16:58:21;7.63;;;4.73;;
10511;SDS011;5304;48.604;2.096;2023-03-07T17:01:11;6.93;;;4.73;;
10511;SDS011;5304;48.604;2.096;2023-03-07T17:03:57;11.23;;;6.03;;
10511;SDS011;5304;48.604;2.096;2023-03-07T17:06:42;9.50;;;4.90;;
10511;SDS011;5304;48.604;2.096;2023-03-07T17:09:26;7.17;;;5.30;;
10511;SDS011;5304;48.604;2.096;2023-03-07T17:12:11;8.67;;;5.17;;
10511;SDS011;5304;48.604;2.096;2023-03-07T17:14:56;11.10;;;6.87;;
10511;SDS011;5304;48.604;2.096;2023-03-07T17:17:42;8.67;;;5.97;;
10511;SDS011;5304;48.604;2.096;2023-03-07T17:20:27;6.47;;;4.30;;
10511;SDS011;5304;48.604;2.096;2023-03-07T17:23:12;8.60;;;4.97;;
10511;SDS011;5304;48.604;2.096;2023-03-07T17:25:57;5.83;;;4.33;;
10511;SDS011;5304;48.604;2.096;2023-03-07T17:28:41;8.40;;;4.57;;
10511;SDS011;5304;48.604;2.096;2023-03-07T17:31:26;6.37;;;4.30;;
10511;SDS011;5304;48.604;2.096;2023-03-07T17:34:20;8.03;;;4.77;;
10511;SDS011;5304;48.604;2.096;2023-03-07T17:37:10;6.87;;;4.60;;
10511;SDS011;5304;48.604;2.096;2023-03-07T17:39:55;7.83;;;4.83;;
10511;SDS011;5304;48.604;2.096;2023-03-07T17:42:40;7.63;;;4.73;;
10511;SDS011;5304;48.604;2.096;2023-03-07T17:45:25;7.27;;;5.03;;
10511;SDS011;5304;48.604;2.096;2023-03-07T17:48:09;7.03;;;4.73;;
10511;SDS011;5304;48.604;2.096;2023-03-07T17:50:54;6.87;;;4.30;;
10511;SDS011;5304;48.604;2.096;2023-03-07T17:53:38;7.47;;;5.43;;
10511;SDS011;5304;48.604;2.096;2023-03-07T17:56:23;7.27;;;5.67;;
10511;SDS011;5304;48.604;2.096;2023-03-07T17:59:08;7.53;;;4.40;;
10511;SDS011;5304;48.604;2.096;2023-03-07T18:01:52;7.60;;;4.80;;
10511;SDS011;5304;48.604;2.096;2023-03-07T18:04:37;8.50;;;5.00;;
10511;SDS011;5304;48.604;2.096;2023-03-07T18:07:22;7.97;;;5.33;;
10511;SDS011;5304;48.604;2.096;2023-03-07T18:10:08;9.23;;;4.97;;
10511;SDS011;5304;48.604;2.096;2023-03-07T18:12:53;10.30;;;5.73;;
10511;SDS011;5304;48.604;2.096;2023-03-07T18:15:38;9.07;;;5.13;;
10511;SDS011;5304;48.604;2.096;2023-03-07T18:18:22;7.50;;;5.07;;
10511;SDS011;5304;48.604;2.096;2023-03-07T18:21:07;8.20;;;5.77;;
10511;SDS011;5304;48.604;2.096;2023-03-07T18:23:55;8.00;;;5.43;;
10511;SDS011;5304;48.604;2.096;2023-03-07T18:26:40;8.87;;;5.23;;
10511;SDS011;5304;48.604;2.096;2023-03-07T18:29:25;8.67;;;5.53;;
10511;SDS011;5304;48.604;2.096;2023-03-07T18:32:11;8.13;;;5.20;;
10511;SDS011;5304;48.604;2.096;2023-03-07T18:34:55;9.03;;;6.63;;
10511;SDS011;5304;48.604;2.096;2023-03-07T18:37:40;9.67;;;6.00;;
10511;SDS011;5304;48.604;2.096;2023-03-07T18:40:25;8.70;;;5.57;;
10511;SDS011;5304;48.604;2.096;2023-03-07T18:43:10;9.30;;;5.87;;
10511;SDS011;5304;48.604;2.096;2023-03-07T18:45:54;10.77;;;6.63;;
10511;SDS011;5304;48.604;2.096;2023-03-07T18:48:38;7.33;;;5.50;;
10511;SDS011;5304;48.604;2.096;2023-03-07T18:51:24;8.90;;;6.13;;
10511;SDS011;5304;48.604;2.096;2023-03-07T18:54:10;7.57;;;4.93;;
10511;SDS011;5304;48.604;2.096;2023-03-07T18:56:55;11.47;;;5.60;;
10511;SDS011;5304;48.604;2.096;2023-03-07T18:59:39;7.37;;;5.30;;
10511;SDS011;5304;48.604;2.096;2023-03-07T19:02:24;10.70;;;5.87;;
10511;SDS011;5304;48.604;2.096;2023-03-07T19:05:08;10.30;;;6.33;;